createdAt,value
2018-05-09T00:01:24.080Z,1.83
2018-05-09T00:03:51.908Z,1.70
2018-05-09T00:06:19.433Z,1.63
2018-05-09T00:08:47.949Z,1.90
2018-05-09T00:11:15.428Z,1.53
2018-05-09T00:13:42.921Z,1.50
2018-05-09T00:16:11.197Z,1.37
2018-05-09T00:18:39.720Z,1.40
2018-05-09T00:21:07.212Z,1.30
2018-05-09T00:23:34.691Z,1.90
2018-05-09T00:26:02.968Z,1.37
2018-05-09T00:28:31.251Z,1.80
2018-05-09T00:30:59.520Z,1.57
2018-05-09T00:33:27.759Z,1.37
2018-05-09T00:35:55.361Z,1.90
2018-05-09T00:38:23.600Z,1.63
2018-05-09T00:40:51.073Z,1.33
2018-05-09T00:43:19.611Z,1.73
2018-05-09T00:45:47.392Z,1.60
2018-05-09T00:48:14.871Z,1.87
2018-05-09T00:50:43.883Z,1.60
2018-05-09T00:53:12.123Z,1.60
2018-05-09T00:55:39.619Z,2.20
2018-05-09T00:58:07.892Z,1.77
2018-05-09T01:00:36.619Z,1.63
2018-05-09T01:03:04.093Z,2.43
2018-05-09T01:05:31.607Z,1.43
2018-05-09T01:07:59.147Z,1.90
2018-05-09T01:10:26.623Z,1.73
2018-05-09T01:12:55.132Z,1.53
2018-05-09T01:15:22.603Z,1.63
2018-05-09T01:17:50.456Z,1.60
2018-05-09T01:20:18.219Z,2.07
2018-05-09T01:22:45.695Z,2.17
2018-05-09T01:25:13.187Z,2.00
2018-05-09T01:27:41.505Z,1.87
2018-05-09T01:30:09.045Z,1.50
2018-05-09T01:32:37.282Z,2.00
2018-05-09T01:35:06.137Z,2.10
2018-05-09T01:37:33.895Z,2.43
2018-05-09T01:40:01.408Z,2.03
2018-05-09T01:42:29.666Z,2.30
2018-05-09T01:44:57.147Z,1.57
2018-05-09T01:47:24.661Z,2.07
2018-05-09T01:49:52.136Z,2.60
2018-05-09T01:52:19.968Z,2.50
2018-05-09T01:54:47.469Z,2.20
2018-05-09T01:57:15.716Z,1.67
2018-05-09T01:59:43.463Z,1.87
2018-05-09T02:02:10.939Z,1.57
2018-05-09T02:04:38.432Z,2.17
2018-05-09T02:07:06.671Z,1.57
2018-05-09T02:09:34.148Z,2.30
2018-05-09T02:12:01.637Z,2.10
2018-05-09T02:14:29.131Z,2.20
2018-05-09T02:16:56.619Z,2.20
2018-05-09T02:19:24.091Z,2.03
2018-05-09T02:21:51.903Z,2.50
2018-05-09T02:24:19.376Z,2.50
2018-05-09T02:26:46.853Z,1.90
2018-05-09T02:29:15.902Z,2.27
2018-05-09T02:31:43.490Z,2.60
2018-05-09T02:34:11.342Z,1.97
2018-05-09T02:36:39.582Z,2.00
2018-05-09T02:39:08.620Z,2.30
2018-05-09T02:41:37.088Z,2.03
2018-05-09T02:44:04.600Z,3.20
2018-05-09T02:46:32.864Z,2.17
2018-05-09T02:49:01.873Z,2.00
2018-05-09T02:51:30.248Z,1.73
2018-05-09T02:53:58.495Z,2.60
2018-05-09T02:56:25.984Z,2.13
2018-05-09T02:58:54.243Z,2.27
2018-05-09T03:01:21.716Z,2.67
2018-05-09T03:03:49.975Z,3.40
2018-05-09T03:06:18.212Z,2.30
2018-05-09T03:08:45.971Z,2.57
2018-05-09T03:11:13.529Z,2.00
2018-05-09T03:13:41.008Z,2.57
2018-05-09T03:16:08.748Z,2.10
2018-05-09T03:18:36.512Z,3.37
2018-05-09T03:21:03.986Z,2.70
2018-05-09T03:23:31.501Z,3.23
2018-05-09T03:25:58.987Z,2.73
2018-05-09T03:28:26.483Z,2.30
2018-05-09T03:30:53.992Z,2.50
2018-05-09T03:33:21.468Z,2.67
2018-05-09T03:35:48.955Z,2.80
2018-05-09T03:38:17.211Z,2.87
2018-05-09T03:40:45.571Z,2.57
2018-05-09T03:43:13.048Z,2.60
2018-05-09T03:45:40.550Z,2.27
2018-05-09T03:48:08.791Z,2.37
2018-05-09T03:50:36.692Z,2.87
2018-05-09T03:53:04.955Z,2.50
2018-05-09T03:55:32.538Z,2.20
2018-05-09T03:58:00.329Z,2.87
2018-05-09T04:00:27.848Z,2.87
2018-05-09T04:03:08.348Z,2.20
2018-05-09T04:05:47.820Z,3.27
2018-05-09T04:08:27.277Z,2.97
2018-05-09T04:10:55.552Z,3.47
2018-05-09T04:13:23.792Z,2.87
2018-05-09T04:15:51.285Z,2.50
2018-05-09T04:18:19.566Z,2.80
2018-05-09T04:20:47.980Z,3.43
2018-05-09T04:23:15.651Z,3.30
2018-05-09T04:25:43.159Z,2.13
2018-05-09T04:28:11.465Z,3.10
2018-05-09T04:30:39.965Z,2.70
2018-05-09T04:33:07.477Z,2.40
2018-05-09T04:35:35.741Z,3.30
2018-05-09T04:38:03.213Z,2.23
2018-05-09T04:40:31.456Z,2.73
2018-05-09T04:42:59.540Z,2.53
2018-05-09T04:45:27.264Z,2.10
2018-05-09T04:47:55.949Z,2.33
2018-05-09T04:50:24.325Z,2.80
2018-05-09T04:52:52.828Z,2.07
2018-05-09T04:55:20.384Z,3.27
2018-05-09T04:57:47.823Z,3.07
2018-05-09T05:00:15.315Z,2.70
2018-05-09T05:02:43.556Z,2.80
2018-05-09T05:05:11.067Z,3.80
2018-05-09T05:07:39.347Z,3.17
2018-05-09T05:10:08.071Z,2.67
2018-05-09T05:12:35.592Z,4.10
2018-05-09T05:15:03.837Z,2.73
2018-05-09T05:17:31.312Z,3.20
2018-05-09T05:19:58.804Z,2.57
2018-05-09T05:22:26.500Z,3.37
2018-05-09T05:24:54.016Z,2.97
2018-05-09T05:27:21.556Z,3.00
2018-05-09T05:29:49.832Z,2.90
2018-05-09T05:32:18.088Z,3.33
2018-05-09T05:34:45.560Z,3.53
2018-05-09T05:37:13.052Z,3.13
2018-05-09T05:39:40.831Z,3.80
2018-05-09T05:42:08.592Z,3.80
2018-05-09T05:44:36.488Z,3.77
2018-05-09T05:47:03.968Z,2.93
2018-05-09T05:49:31.463Z,3.43
2018-05-09T05:51:59.017Z,4.53
2018-05-09T05:54:26.486Z,3.40
2018-05-09T05:56:54.008Z,3.77
2018-05-09T05:59:22.283Z,3.77
2018-05-09T06:01:50.546Z,3.30
2018-05-09T06:04:19.083Z,3.60
2018-05-09T06:06:46.847Z,2.80
2018-05-09T06:09:14.364Z,2.70
2018-05-09T06:11:42.636Z,3.67
2018-05-09T06:14:10.916Z,3.87
2018-05-09T06:16:39.164Z,3.13
2018-05-09T06:19:06.636Z,2.80
2018-05-09T06:21:34.132Z,2.83
2018-05-09T06:24:01.719Z,3.17
2018-05-09T06:26:29.112Z,4.07
2018-05-09T06:28:57.355Z,3.47
2018-05-09T06:31:24.835Z,3.30
2018-05-09T06:33:53.784Z,2.80
2018-05-09T06:36:21.263Z,3.70
2018-05-09T06:38:49.008Z,2.70
2018-05-09T06:41:16.488Z,3.70
2018-05-09T06:43:44.043Z,2.63
2018-05-09T06:46:12.244Z,3.10
2018-05-09T06:48:39.720Z,2.43
2018-05-09T06:51:08.093Z,2.40
2018-05-09T06:53:36.335Z,2.57
2018-05-09T06:56:04.067Z,3.27
2018-05-09T06:58:31.833Z,2.20
2018-05-09T07:00:59.304Z,2.50
2018-05-09T07:03:26.820Z,2.80
2018-05-09T07:05:54.615Z,2.33
2018-05-09T07:08:22.128Z,2.50
2018-05-09T07:10:50.404Z,2.60
2018-05-09T07:13:17.899Z,2.40
2018-05-09T07:15:45.399Z,2.40
2018-05-09T07:18:13.128Z,1.73
2018-05-09T07:20:40.639Z,2.20
2018-05-09T07:23:08.997Z,2.10
2018-05-09T07:25:37.334Z,1.77
2018-05-09T07:28:05.104Z,2.10
2018-05-09T07:30:32.796Z,2.67
2018-05-09T07:33:00.528Z,1.77
2018-05-09T07:35:28.319Z,1.70
2018-05-09T07:37:55.784Z,2.07
2018-05-09T07:40:23.280Z,1.60
2018-05-09T07:42:51.072Z,2.67
2018-05-09T07:45:18.543Z,1.53
2018-05-09T07:47:46.103Z,1.83
2018-05-09T07:50:14.283Z,1.90
2018-05-09T07:52:41.779Z,1.50
2018-05-09T07:55:10.023Z,1.63
2018-05-09T07:57:37.507Z,2.17
2018-05-09T08:00:05.768Z,1.50
2018-05-09T08:02:33.247Z,2.53
2018-05-09T08:05:01.571Z,1.90
2018-05-09T08:07:29.044Z,2.73
2018-05-09T08:09:56.529Z,3.20
2018-05-09T08:12:24.783Z,1.93
2018-05-09T08:14:52.369Z,2.83
2018-05-09T08:17:20.892Z,2.27
2018-05-09T08:19:48.656Z,2.47
2018-05-09T08:22:16.172Z,2.17
2018-05-09T08:24:44.424Z,1.87
2018-05-09T08:27:12.152Z,2.40
2018-05-09T08:29:39.648Z,1.90
2018-05-09T08:32:08.908Z,1.80
2018-05-09T08:34:36.384Z,1.53
2018-05-09T08:37:04.131Z,2.60
2018-05-09T08:39:31.640Z,2.30
2018-05-09T08:41:59.904Z,2.23
2018-05-09T08:44:27.595Z,2.40
2018-05-09T08:46:55.835Z,2.23
2018-05-09T08:49:23.410Z,2.40
2018-05-09T08:51:50.868Z,2.87
2018-05-09T08:54:19.136Z,2.70
2018-05-09T08:56:46.824Z,2.30
2018-05-09T08:59:14.368Z,2.93
2018-05-09T09:01:42.634Z,2.80
2018-05-09T09:04:10.348Z,2.43
2018-05-09T09:06:37.848Z,3.17
2018-05-09T09:09:05.324Z,2.43
2018-05-09T09:11:33.568Z,2.00
2018-05-09T09:14:01.067Z,2.20
2018-05-09T09:16:29.312Z,2.60
2018-05-09T09:18:56.814Z,2.50
2018-05-09T09:21:24.343Z,2.40
2018-05-09T09:23:52.588Z,2.67
2018-05-09T09:26:20.076Z,2.30
2018-05-09T09:28:48.316Z,3.17
2018-05-09T09:31:16.056Z,2.40
2018-05-09T09:33:43.533Z,2.93
2018-05-09T09:36:11.008Z,2.70
2018-05-09T09:38:38.496Z,3.10
2018-05-09T09:41:07.133Z,2.67
2018-05-09T09:43:34.628Z,2.47
2018-05-09T09:46:02.869Z,2.73
2018-05-09T09:48:30.351Z,2.67
2018-05-09T09:50:57.856Z,3.37
2018-05-09T09:53:25.340Z,2.63
2018-05-09T09:55:52.832Z,3.33
2018-05-09T09:58:21.360Z,2.40
2018-05-09T10:00:48.875Z,2.73
2018-05-09T10:03:17.152Z,2.60
2018-05-09T10:05:45.424Z,2.63
2018-05-09T10:08:13.684Z,2.43
2018-05-09T10:10:41.161Z,3.37
2018-05-09T10:13:09.410Z,2.47
2018-05-09T10:15:37.268Z,2.67
2018-05-09T10:18:05.004Z,3.13
2018-05-09T10:20:32.520Z,3.60
2018-05-09T10:23:01.138Z,2.37
2018-05-09T10:25:28.660Z,2.30
2018-05-09T10:27:56.948Z,2.30
2018-05-09T10:30:25.212Z,1.87
2018-05-09T10:32:53.492Z,2.67
2018-05-09T10:35:21.728Z,2.13
2018-05-09T10:37:49.224Z,1.80
2018-05-09T10:40:17.464Z,2.23
2018-05-09T10:42:44.964Z,2.60
2018-05-09T10:45:13.204Z,2.60
2018-05-09T10:47:40.936Z,2.73
2018-05-09T10:50:08.429Z,2.80
2018-05-09T10:52:35.912Z,2.60
2018-05-09T10:55:04.172Z,2.60
2018-05-09T10:57:31.644Z,2.23
2018-05-09T10:59:59.883Z,3.10
2018-05-09T11:02:27.380Z,2.40
2018-05-09T11:04:55.621Z,2.87
2018-05-09T11:07:23.210Z,2.73
2018-05-09T11:09:51.459Z,2.40
2018-05-09T11:12:19.011Z,2.70
2018-05-09T11:14:46.595Z,3.40
2018-05-09T11:17:14.840Z,2.37
2018-05-09T11:19:42.428Z,2.83
2018-05-09T11:22:09.964Z,2.80
2018-05-09T11:24:37.483Z,2.50
2018-05-09T11:27:04.971Z,2.50
2018-05-09T11:29:32.712Z,2.50
2018-05-09T11:32:00.204Z,2.57
2018-05-09T11:34:29.184Z,3.17
2018-05-09T11:36:56.668Z,2.70
2018-05-09T11:39:24.484Z,2.77
2018-05-09T11:41:51.960Z,3.00
2018-05-09T11:44:19.456Z,3.00
2018-05-09T11:46:47.736Z,2.43
2018-05-09T11:49:15.978Z,3.17
2018-05-09T11:51:43.480Z,2.30
2018-05-09T11:54:11.720Z,2.80
2018-05-09T11:56:39.220Z,2.73
2018-05-09T11:59:06.696Z,2.87
2018-05-09T12:01:34.464Z,2.73
2018-05-09T12:04:01.981Z,3.03
2018-05-09T12:06:30.224Z,3.40
2018-05-09T12:08:57.808Z,2.47
2018-05-09T12:11:26.051Z,2.60
2018-05-09T12:13:53.532Z,2.70
2018-05-09T12:16:21.024Z,3.07
2018-05-09T12:18:48.500Z,3.17
2018-05-09T12:21:16.840Z,2.77
2018-05-09T12:23:45.084Z,2.33
2018-05-09T12:26:12.560Z,1.90
2018-05-09T12:28:40.128Z,2.27
2018-05-09T12:31:08.377Z,2.73
2018-05-09T12:33:35.880Z,2.70
2018-05-09T12:36:03.364Z,2.33
2018-05-09T12:38:30.849Z,2.00
2018-05-09T12:40:58.349Z,2.90
2018-05-09T12:43:26.140Z,2.93
2018-05-09T12:45:53.639Z,2.23
2018-05-09T12:48:21.111Z,2.30
2018-05-09T12:50:49.636Z,2.80
2018-05-09T12:53:17.156Z,2.37
2018-05-09T12:55:45.397Z,2.50
2018-05-09T12:58:12.894Z,2.37
2018-05-09T13:00:41.136Z,1.80
2018-05-09T13:03:08.863Z,2.33
2018-05-09T13:05:36.362Z,2.53
2018-05-09T13:08:03.848Z,2.10
2018-05-09T13:10:32.363Z,2.97
2018-05-09T13:13:00.228Z,2.10
2018-05-09T13:15:27.743Z,2.50
2018-05-09T13:17:56.000Z,2.27
2018-05-09T13:20:23.479Z,2.37
2018-05-09T13:22:51.999Z,2.37
2018-05-09T13:25:19.479Z,2.23
2018-05-09T13:27:47.220Z,2.00
2018-05-09T13:30:14.732Z,2.40
2018-05-09T13:32:42.976Z,2.20
2018-05-09T13:35:10.716Z,2.03
2018-05-09T13:37:38.196Z,2.43
2018-05-09T13:40:05.757Z,2.33
2018-05-09T13:42:33.959Z,1.97
2018-05-09T13:45:02.236Z,1.60
2018-05-09T13:47:30.495Z,1.90
2018-05-09T13:49:58.071Z,1.60
2018-05-09T13:52:26.320Z,2.10
2018-05-09T13:54:53.906Z,1.60
2018-05-09T13:57:22.148Z,2.07
2018-05-09T13:59:49.640Z,2.07
2018-05-09T14:02:17.888Z,2.60
2018-05-09T14:04:45.360Z,2.20
2018-05-09T14:07:12.848Z,2.13
2018-05-09T14:09:40.637Z,1.90
2018-05-09T14:12:08.192Z,2.00
2018-05-09T14:14:35.684Z,1.87
2018-05-09T14:17:03.194Z,2.40
2018-05-09T14:19:30.977Z,1.93
2018-05-09T14:21:58.742Z,2.17
2018-05-09T14:24:26.507Z,1.60
2018-05-09T14:26:53.984Z,2.20
2018-05-09T14:29:21.455Z,1.70
2018-05-09T14:31:49.179Z,1.87
2018-05-09T14:34:17.100Z,1.90
2018-05-09T14:36:45.630Z,1.77
2018-05-09T14:39:13.107Z,1.83
2018-05-09T14:41:40.805Z,1.70
2018-05-09T14:44:09.061Z,1.60
2018-05-09T14:46:36.617Z,1.63
2018-05-09T14:49:04.097Z,2.20
2018-05-09T14:51:32.336Z,1.33
2018-05-09T14:53:59.810Z,2.00
2018-05-09T14:56:27.303Z,2.03
2018-05-09T14:58:54.777Z,2.10
2018-05-09T15:01:22.276Z,2.10
2018-05-09T15:03:49.752Z,1.57
2018-05-09T15:06:17.227Z,1.60
2018-05-09T15:08:45.740Z,1.73
2018-05-09T15:11:13.251Z,1.57
2018-05-09T15:13:41.528Z,1.77
2018-05-09T15:16:10.056Z,1.40
2018-05-09T15:18:37.572Z,1.50
2018-05-09T15:21:05.832Z,1.50
2018-05-09T15:23:33.407Z,1.43
2018-05-09T15:26:01.786Z,1.53
2018-05-09T15:28:30.307Z,1.90
2018-05-09T15:31:08.835Z,1.60
2018-05-09T15:33:36.588Z,1.80
2018-05-09T15:36:04.112Z,1.53
2018-05-09T15:38:32.628Z,1.67
2018-05-09T15:41:00.112Z,1.57
2018-05-09T15:43:27.676Z,1.67
2018-05-09T15:45:55.260Z,1.10
2018-05-09T15:48:23.522Z,1.60
2018-05-09T15:50:51.240Z,1.20
2018-05-09T15:53:18.758Z,1.97
2018-05-09T15:55:47.041Z,1.60
2018-05-09T15:58:15.284Z,1.47
2018-05-09T16:00:43.588Z,1.37
2018-05-09T16:03:11.035Z,1.47
2018-05-09T16:05:39.563Z,1.13
2018-05-09T16:08:07.328Z,2.00
2018-05-09T16:10:34.902Z,1.87
2018-05-09T16:13:02.356Z,1.30
2018-05-09T16:15:29.836Z,1.20
2018-05-09T16:17:57.420Z,1.73
2018-05-09T16:20:25.676Z,1.80
2018-05-09T16:22:53.152Z,2.17
2018-05-09T16:25:21.676Z,1.83
2018-05-09T16:27:49.439Z,1.30
2018-05-09T16:30:16.958Z,1.70
2018-05-09T16:32:45.480Z,1.60
2018-05-09T16:35:12.951Z,1.73
2018-05-09T16:37:40.448Z,2.00
2018-05-09T16:40:08.724Z,1.80
2018-05-09T16:42:36.971Z,1.60
2018-05-09T16:45:04.561Z,1.63
2018-05-09T16:47:33.036Z,1.60
2018-05-09T16:50:01.331Z,2.10
2018-05-09T16:52:28.808Z,1.67
2018-05-09T16:54:56.328Z,1.30
2018-05-09T16:57:24.494Z,1.30
2018-05-09T16:59:52.748Z,1.53
2018-05-09T17:02:20.251Z,2.03
2018-05-09T17:04:48.491Z,1.50
2018-05-09T17:07:16.014Z,1.70
2018-05-09T17:09:43.779Z,1.30
2018-05-09T17:12:11.260Z,1.70
2018-05-09T17:14:38.878Z,1.80
2018-05-09T17:17:06.446Z,1.57
2018-05-09T17:19:33.928Z,1.80
2018-05-09T17:22:18.996Z,1.33
2018-05-09T17:24:46.488Z,1.90
2018-05-09T17:27:15.757Z,1.37
2018-05-09T17:29:43.268Z,1.93
2018-05-09T17:32:10.776Z,1.90
2018-05-09T17:34:38.350Z,1.93
2018-05-09T17:37:05.823Z,1.50
2018-05-09T17:39:34.140Z,1.33
2018-05-09T17:42:01.633Z,2.00
2018-05-09T17:44:29.368Z,1.70
2018-05-09T17:46:56.864Z,1.83
2018-05-09T17:49:24.337Z,1.83
2018-05-09T17:51:52.595Z,1.07
2018-05-09T17:54:20.096Z,2.03
2018-05-09T17:56:47.576Z,1.73
2018-05-09T17:59:15.291Z,1.70
2018-05-09T18:01:43.581Z,1.80
2018-05-09T18:04:11.125Z,1.70
2018-05-09T18:06:39.379Z,2.10
2018-05-09T18:09:06.852Z,1.53
2018-05-09T18:11:34.561Z,2.03
2018-05-09T18:14:02.036Z,1.60
2018-05-09T18:16:29.544Z,1.80
2018-05-09T18:18:57.854Z,2.07
2018-05-09T18:21:25.358Z,1.97
2018-05-09T18:23:52.860Z,1.40
2018-05-09T18:26:20.330Z,1.77
2018-05-09T18:28:47.811Z,1.70
2018-05-09T18:31:15.403Z,1.80
2018-05-09T18:33:43.649Z,1.57
2018-05-09T18:36:11.153Z,2.17
2018-05-09T18:38:38.691Z,1.80
2018-05-09T18:41:06.964Z,2.07
2018-05-09T18:43:35.221Z,1.53
2018-05-09T18:46:02.696Z,2.00
2018-05-09T18:48:30.961Z,1.97
2018-05-09T18:50:59.944Z,1.73
2018-05-09T18:53:28.999Z,1.67
2018-05-09T18:55:56.497Z,1.60
2018-05-09T18:58:23.976Z,1.67
2018-05-09T19:00:52.260Z,2.17
2018-05-09T19:03:20.532Z,2.60
2018-05-09T19:05:48.804Z,2.27
2018-05-09T19:08:17.080Z,2.23
2018-05-09T19:10:46.320Z,2.00
2018-05-09T19:13:13.816Z,1.97
2018-05-09T19:15:41.302Z,2.30
2018-05-09T19:18:09.548Z,1.97
2018-05-09T19:20:37.046Z,2.20
2018-05-09T19:23:04.700Z,2.27
2018-05-09T19:25:32.005Z,2.47
2018-05-09T19:27:59.854Z,1.93
2018-05-09T19:30:27.336Z,2.00
2018-05-09T19:32:54.814Z,2.50
2018-05-09T19:35:23.177Z,3.43
2018-05-09T19:37:52.028Z,2.00
2018-05-09T19:40:19.524Z,2.07
2018-05-09T19:42:48.607Z,2.20
2018-05-09T19:45:16.084Z,2.20
2018-05-09T19:47:44.351Z,2.70
2018-05-09T19:50:11.832Z,2.97
2018-05-09T19:52:40.092Z,2.50
2018-05-09T19:55:08.363Z,1.70
2018-05-09T19:57:35.828Z,2.47
2018-05-09T20:00:04.088Z,2.20
2018-05-09T20:02:31.564Z,2.30
2018-05-09T20:04:59.827Z,2.07
2018-05-09T20:07:27.400Z,2.13
2018-05-09T20:09:55.884Z,1.60
2018-05-09T20:12:24.121Z,2.10
2018-05-09T20:14:51.620Z,1.87
2018-05-09T20:17:19.862Z,2.30
2018-05-09T20:19:47.335Z,2.33
2018-05-09T20:22:15.159Z,2.40
2018-05-09T20:24:42.644Z,2.40
2018-05-09T20:27:10.483Z,2.20
2018-05-09T20:29:38.244Z,2.33
2018-05-09T20:32:17.637Z,2.60
2018-05-09T20:34:45.883Z,2.50
2018-05-09T20:37:13.380Z,1.80
2018-05-09T20:39:41.740Z,2.53
2018-05-09T20:42:10.028Z,2.40
2018-05-09T20:44:38.681Z,2.60
2018-05-09T20:47:06.201Z,3.53
2018-05-09T20:49:33.972Z,2.47
2018-05-09T20:52:01.464Z,2.70
2018-05-09T20:54:28.936Z,2.90
2018-05-09T20:56:56.425Z,2.27
2018-05-09T20:59:23.901Z,2.57
2018-05-09T21:01:51.764Z,2.10
2018-05-09T21:04:19.534Z,2.33
2018-05-09T21:06:47.295Z,2.63
2018-05-09T21:09:14.879Z,2.17
2018-05-09T21:25:13.371Z,2.37
2018-05-09T21:27:41.741Z,2.73
2018-05-09T21:30:09.925Z,2.17
2018-05-09T21:32:38.213Z,1.70
2018-05-09T21:35:06.456Z,2.47
2018-05-09T21:37:33.944Z,2.40
2018-05-09T21:40:02.188Z,3.40
2018-05-09T21:42:29.708Z,2.40
2018-05-09T21:44:57.236Z,2.90
2018-05-09T21:47:25.512Z,2.53
2018-05-09T21:49:53.780Z,2.30
2018-05-09T21:52:22.025Z,2.80
2018-05-09T21:54:49.532Z,2.53
2018-05-09T21:57:17.077Z,3.20
2018-05-09T21:59:45.388Z,2.70
2018-05-09T22:02:12.907Z,3.00
2018-05-09T22:04:41.432Z,2.30
2018-05-09T22:07:08.924Z,2.43
2018-05-09T22:09:36.509Z,2.77
2018-05-09T22:12:04.752Z,2.43
2018-05-09T22:14:32.371Z,3.40
2018-05-09T22:17:00.041Z,2.40
2018-05-09T22:19:27.536Z,3.50
2018-05-09T22:21:55.011Z,3.10
2018-05-09T22:24:22.487Z,2.70
2018-05-09T22:26:50.748Z,3.57
2018-05-09T22:29:19.334Z,3.10
2018-05-09T22:31:46.783Z,2.90
2018-05-09T22:34:14.353Z,3.53
2018-05-09T22:36:42.600Z,3.30
2018-05-09T22:39:10.184Z,4.00
2018-05-09T22:41:38.423Z,3.20
2018-05-09T22:44:05.927Z,3.67
2018-05-09T22:46:34.168Z,2.77
2018-05-09T22:49:01.647Z,2.57
2018-05-09T22:51:30.171Z,3.50
2018-05-09T22:53:57.829Z,3.03
2018-05-09T22:56:25.611Z,2.67
2018-05-09T22:58:53.364Z,3.33
2018-05-09T23:01:20.836Z,3.10
2018-05-09T23:03:48.325Z,3.00
2018-05-09T23:06:15.803Z,3.13
2018-05-09T23:08:44.068Z,3.10
2018-05-09T23:11:12.307Z,2.93
2018-05-09T23:13:39.783Z,3.10
2018-05-09T23:16:07.277Z,3.20
2018-05-09T23:18:34.757Z,3.13
2018-05-09T23:21:02.248Z,2.97
2018-05-09T23:23:31.672Z,3.27
2018-05-09T23:26:00.504Z,3.53
2018-05-09T23:28:27.999Z,3.67
2018-05-09T23:30:56.240Z,3.63
2018-05-09T23:33:23.999Z,3.23
2018-05-09T23:35:51.473Z,2.70
2018-05-09T23:38:19.219Z,3.00
2018-05-09T23:40:46.716Z,3.43
2018-05-09T23:43:14.196Z,2.87
2018-05-09T23:45:42.468Z,2.40
2018-05-09T23:48:10.940Z,3.10
2018-05-09T23:50:38.658Z,2.97
2018-05-09T23:53:06.420Z,3.50
2018-05-09T23:55:33.978Z,3.63
2018-05-09T23:58:01.400Z,2.90
